createdAt,value
2023-05-12T00:01:17.465Z,22.27
2023-05-12T00:03:44.612Z,24.23
2023-05-12T00:06:12.376Z,24.20
2023-05-12T00:08:39.323Z,22.63
2023-05-12T00:11:06.319Z,23.88
2023-05-12T00:13:33.315Z,24.40
2023-05-12T00:16:00.580Z,24.20
2023-05-12T00:18:28.647Z,25.00
2023-05-12T00:20:56.771Z,24.73
2023-05-12T00:23:23.769Z,25.60
2023-05-12T00:25:50.952Z,24.25
2023-05-12T00:28:18.885Z,25.13
2023-05-12T00:30:46.082Z,26.58
2023-05-12T00:33:13.411Z,25.65
2023-05-12T00:35:40.337Z,24.50
2023-05-12T00:38:07.390Z,24.92
2023-05-12T00:40:34.441Z,24.48
2023-05-12T00:43:01.524Z,26.27
2023-05-12T00:45:29.733Z,25.52
2023-05-12T00:47:57.547Z,25.08
2023-05-12T00:50:25.553Z,27.60
2023-05-12T00:52:53.124Z,26.02
2023-05-12T00:55:20.593Z,29.00
2023-05-12T00:57:47.868Z,27.00
2023-05-12T01:00:16.505Z,28.10
2023-05-12T01:02:45.971Z,26.90
2023-05-12T01:05:13.264Z,27.92
2023-05-12T01:07:41.940Z,25.67
2023-05-12T01:10:21.197Z,28.73
2023-05-12T01:12:48.642Z,27.63
2023-05-12T01:15:17.391Z,26.75
2023-05-12T01:17:55.949Z,26.45
2023-05-12T01:20:27.030Z,27.90
2023-05-12T01:22:55.774Z,27.90
2023-05-12T01:25:25.249Z,28.85
2023-05-12T01:27:53.601Z,26.98
2023-05-12T01:30:23.391Z,29.17
2023-05-12T01:32:51.362Z,28.98
2023-05-12T01:35:19.294Z,33.75
2023-05-12T01:37:53.880Z,28.83
2023-05-12T01:40:22.004Z,31.60
2023-05-12T01:42:49.272Z,30.83
2023-05-12T01:45:16.371Z,31.45
2023-05-12T01:47:43.438Z,31.27
2023-05-12T01:50:11.084Z,30.75
2023-05-12T01:52:38.745Z,28.83
2023-05-12T01:55:09.885Z,28.70
2023-05-12T01:57:50.708Z,32.70
2023-05-12T02:00:19.251Z,31.88
2023-05-12T02:02:48.664Z,32.40
2023-05-12T02:05:17.413Z,31.95
2023-05-12T02:07:46.981Z,31.08
2023-05-12T02:10:13.969Z,29.85
2023-05-12T02:12:40.955Z,33.00
2023-05-12T02:15:08.389Z,33.15
2023-05-12T02:20:06.935Z,31.20
2023-05-12T02:22:33.928Z,29.88
2023-05-12T02:25:01.101Z,29.52
2023-05-12T02:27:28.263Z,31.02
2023-05-12T02:29:55.699Z,31.83
2023-05-12T02:32:22.952Z,31.88
2023-05-12T02:34:50.638Z,30.83
2023-05-12T02:37:17.763Z,32.80
2023-05-12T02:39:44.768Z,32.85
2023-05-12T02:42:11.750Z,31.08
2023-05-12T02:44:39.270Z,32.13
2023-05-12T02:47:06.492Z,29.88
2023-05-12T02:49:33.425Z,31.42
2023-05-12T02:52:00.503Z,32.58
2023-05-12T02:54:27.636Z,30.42
2023-05-12T02:56:56.556Z,30.05
2023-05-12T02:59:23.545Z,30.90
2023-05-12T03:01:50.478Z,34.03
2023-05-12T03:04:18.609Z,33.10
2023-05-12T03:06:45.809Z,33.22
2023-05-12T03:09:13.428Z,32.33
2023-05-12T03:11:40.811Z,35.17
2023-05-12T03:14:07.734Z,34.40
2023-05-12T03:16:34.820Z,32.95
2023-05-12T03:19:02.754Z,33.90
2023-05-12T03:21:29.889Z,36.05
2023-05-12T03:23:57.968Z,33.92
2023-05-12T03:26:25.994Z,35.75
2023-05-12T03:28:53.313Z,36.75
2023-05-12T03:31:20.323Z,37.08
2023-05-12T03:33:47.416Z,38.40
2023-05-12T03:36:14.336Z,36.03
2023-05-12T03:38:41.228Z,36.88
2023-05-12T03:41:08.592Z,35.78
2023-05-12T03:43:36.107Z,36.35
2023-05-12T03:46:03.981Z,36.00
2023-05-12T03:48:31.114Z,36.25
2023-05-12T03:50:59.080Z,37.45
2023-05-12T03:53:26.138Z,36.55
2023-05-12T03:55:53.273Z,38.70
2023-05-12T03:58:20.167Z,34.60
2023-05-12T04:00:49.742Z,38.45
2023-05-12T04:03:17.543Z,37.42
2023-05-12T04:05:44.706Z,37.17
2023-05-12T04:08:11.801Z,39.78
2023-05-12T04:10:42.504Z,39.78
2023-05-12T04:13:09.448Z,38.83
2023-05-12T04:15:36.484Z,39.00
2023-05-12T04:18:04.043Z,38.45
2023-05-12T04:20:31.115Z,39.80
2023-05-12T04:22:58.228Z,38.28
2023-05-12T04:25:25.322Z,38.35
2023-05-12T04:27:52.471Z,38.55
2023-05-12T04:30:19.810Z,37.55
2023-05-12T04:32:47.254Z,35.33
2023-05-12T04:35:14.594Z,35.60
2023-05-12T04:37:41.667Z,35.33
2023-05-12T04:40:09.409Z,35.45
2023-05-12T04:42:36.563Z,33.15
2023-05-12T04:45:04.025Z,33.60
2023-05-12T04:47:32.305Z,32.22
2023-05-12T04:49:59.263Z,33.53
2023-05-12T04:52:26.498Z,31.55
2023-05-12T04:54:53.506Z,31.92
2023-05-12T04:57:20.457Z,33.47
2023-05-12T04:59:47.422Z,33.38
2023-05-12T05:02:14.517Z,33.83
2023-05-12T05:04:41.462Z,31.77
2023-05-12T05:07:08.557Z,33.97
2023-05-12T05:09:36.683Z,33.47
2023-05-12T05:12:04.118Z,32.25
2023-05-12T05:14:31.208Z,35.33
2023-05-12T05:16:58.288Z,34.88
2023-05-12T05:19:40.394Z,33.00
2023-05-12T05:22:12.564Z,32.92
2023-05-12T05:24:39.523Z,34.38
2023-05-12T05:27:06.418Z,37.42
2023-05-12T05:29:33.411Z,32.15
2023-05-12T05:32:00.687Z,34.33
2023-05-12T05:34:27.871Z,32.17
2023-05-12T05:36:55.611Z,34.90
2023-05-12T05:39:22.893Z,33.10
2023-05-12T05:41:49.797Z,31.35
2023-05-12T05:44:16.705Z,31.20
2023-05-12T05:46:43.658Z,33.97
2023-05-12T05:49:10.657Z,32.17
2023-05-12T05:51:37.607Z,32.40
2023-05-12T05:54:04.570Z,32.45
2023-05-12T05:56:33.240Z,34.17
2023-05-12T05:59:03.063Z,29.58
2023-05-12T06:03:58.194Z,29.92
2023-05-12T06:06:25.200Z,30.27
2023-05-12T06:08:52.129Z,28.88
2023-05-12T06:11:19.063Z,29.58
2023-05-12T06:13:46.021Z,31.00
2023-05-12T06:16:12.975Z,29.58
2023-05-12T06:18:39.929Z,30.25
2023-05-12T06:21:06.911Z,29.33
2023-05-12T06:23:33.954Z,28.92
2023-05-12T06:26:00.915Z,26.88
2023-05-12T06:28:28.189Z,27.38
2023-05-12T06:30:55.477Z,25.90
2023-05-12T06:33:22.457Z,26.38
2023-05-12T06:35:50.290Z,26.13
2023-05-12T06:38:17.257Z,25.00
2023-05-12T06:40:45.011Z,24.65
2023-05-12T06:43:12.939Z,22.15
2023-05-12T06:45:43.566Z,25.50
2023-05-12T06:48:10.689Z,23.50
2023-05-12T06:50:37.725Z,24.55
2023-05-12T06:53:06.385Z,24.40
2023-05-12T06:55:33.277Z,24.38
2023-05-12T06:58:00.248Z,24.45
2023-05-12T07:00:27.280Z,23.05
2023-05-12T07:02:54.364Z,23.02
2023-05-12T07:05:21.568Z,22.55
2023-05-12T07:07:48.932Z,23.63
2023-05-12T07:10:16.153Z,21.67
2023-05-12T07:12:43.221Z,22.48
2023-05-12T07:15:10.651Z,22.48
2023-05-12T07:17:37.678Z,23.70
2023-05-12T07:20:05.801Z,22.50
2023-05-12T07:22:32.827Z,22.05
2023-05-12T07:24:59.938Z,24.02
2023-05-12T07:27:27.084Z,23.42
2023-05-12T07:29:54.322Z,23.02
2023-05-12T07:32:21.290Z,21.88
2023-05-12T07:34:48.276Z,22.20
2023-05-12T07:37:15.184Z,20.42
2023-05-12T07:39:42.113Z,22.40
2023-05-12T07:42:09.721Z,19.60
2023-05-12T07:44:36.664Z,21.38
2023-05-12T07:47:03.729Z,20.08
2023-05-12T07:49:30.628Z,21.30
2023-05-12T07:51:57.535Z,19.35
2023-05-12T07:54:24.507Z,19.30
2023-05-12T07:56:51.666Z,19.50
2023-05-12T07:59:18.578Z,18.42
2023-05-12T08:01:45.675Z,18.38
2023-05-12T08:04:12.999Z,18.55
2023-05-12T08:06:40.036Z,19.80
2023-05-12T08:09:07.480Z,20.15
2023-05-12T08:11:34.508Z,17.67
2023-05-12T08:14:01.503Z,19.45
2023-05-12T08:16:28.448Z,18.45
2023-05-12T08:18:55.503Z,19.55
2023-05-12T08:21:22.527Z,18.25
2023-05-12T08:23:49.623Z,19.85
2023-05-12T08:26:16.526Z,19.52
2023-05-12T08:28:43.628Z,18.48
2023-05-12T08:31:10.660Z,18.88
2023-05-12T08:33:37.902Z,21.08
2023-05-12T08:36:05.360Z,19.02
2023-05-12T08:38:33.142Z,20.88
2023-05-12T08:41:06.163Z,18.35
2023-05-12T08:43:43.023Z,18.85
2023-05-12T08:46:10.281Z,20.42
2023-05-12T08:48:40.155Z,17.73
2023-05-12T08:51:13.292Z,17.30
2023-05-12T08:53:42.072Z,17.73
2023-05-12T08:58:45.670Z,18.35
2023-05-12T09:01:14.662Z,16.88
2023-05-12T09:03:42.300Z,17.02
2023-05-12T09:06:11.486Z,17.60
2023-05-12T09:08:40.777Z,18.73
2023-05-12T09:11:12.910Z,17.55
2023-05-12T09:13:54.919Z,18.20
2023-05-12T09:16:29.182Z,17.48
2023-05-12T09:18:58.741Z,16.10
2023-05-12T09:21:26.907Z,16.33
2023-05-12T09:23:59.908Z,17.38
2023-05-12T09:26:28.637Z,17.75
2023-05-12T09:29:08.278Z,15.85
2023-05-12T09:31:35.518Z,14.90
2023-05-12T09:34:10.235Z,14.57
2023-05-12T09:36:37.466Z,14.82
2023-05-12T09:39:09.536Z,14.73
2023-05-12T09:41:43.498Z,13.95
2023-05-12T09:44:14.982Z,12.57
2023-05-12T09:46:41.902Z,14.35
2023-05-12T09:49:09.124Z,14.23
2023-05-12T09:51:36.115Z,14.15
2023-05-12T09:54:05.611Z,13.65
2023-05-12T09:56:38.259Z,13.38
2023-05-12T09:59:05.928Z,13.27
2023-05-12T10:01:33.165Z,12.38
2023-05-12T10:04:00.187Z,13.10
2023-05-12T10:06:30.394Z,13.27
2023-05-12T10:09:33.984Z,13.32
2023-05-12T10:12:03.139Z,13.93
2023-05-12T10:14:31.497Z,13.55
2023-05-12T10:16:59.874Z,13.05
2023-05-12T10:19:28.911Z,13.32
2023-05-12T10:21:57.786Z,13.10
2023-05-12T10:24:28.630Z,13.73
2023-05-12T10:27:03.841Z,13.30
2023-05-12T10:29:32.885Z,13.68
2023-05-12T10:32:03.816Z,14.98
2023-05-12T10:34:37.217Z,14.15
2023-05-12T10:37:11.155Z,13.60
2023-05-12T10:39:51.498Z,14.88
2023-05-12T10:42:25.544Z,11.77
2023-05-12T10:44:54.605Z,11.45
2023-05-12T10:47:37.548Z,11.52
2023-05-12T10:50:05.532Z,13.73
2023-05-12T10:52:32.454Z,13.10
2023-05-12T10:55:04.645Z,11.73
2023-05-12T10:57:33.305Z,11.98
2023-05-12T11:00:02.590Z,11.32
2023-05-12T11:02:34.201Z,12.27
2023-05-12T11:05:12.865Z,12.63
2023-05-12T11:07:41.866Z,12.77
2023-05-12T11:10:10.674Z,12.88
2023-05-12T11:12:37.837Z,10.88
2023-05-12T11:15:06.915Z,12.65
2023-05-12T11:17:37.704Z,12.00
2023-05-12T11:20:05.481Z,11.18
2023-05-12T11:22:32.367Z,11.15
2023-05-12T11:25:09.153Z,11.93
2023-05-12T11:27:39.206Z,12.25
2023-05-12T11:30:07.282Z,12.40
2023-05-12T11:32:34.214Z,10.90
2023-05-12T11:35:10.662Z,11.52
2023-05-12T11:37:39.879Z,11.68
2023-05-12T11:40:21.993Z,11.23
2023-05-12T11:45:29.956Z,11.15
2023-05-12T11:48:12.244Z,10.65
2023-05-12T11:50:45.088Z,11.82
2023-05-12T11:53:15.605Z,12.45
2023-05-12T11:55:52.860Z,10.63
2023-05-12T11:58:30.561Z,12.00
2023-05-12T12:01:09.996Z,12.95
2023-05-12T12:03:48.722Z,12.95
2023-05-12T12:06:16.414Z,11.15
2023-05-12T12:08:55.216Z,12.55
2023-05-12T12:11:24.030Z,11.70
2023-05-12T12:13:56.581Z,12.43
2023-05-12T12:16:33.190Z,12.07
2023-05-12T12:19:00.676Z,11.13
2023-05-12T12:21:27.636Z,12.55
2023-05-12T12:23:54.528Z,12.88
2023-05-12T12:26:22.934Z,12.85
2023-05-12T12:28:50.732Z,12.23
2023-05-12T12:31:17.718Z,12.75
2023-05-12T12:33:44.649Z,12.25
2023-05-12T12:36:11.624Z,12.77
2023-05-12T12:38:38.605Z,12.35
2023-05-12T12:41:07.176Z,12.35
2023-05-12T12:43:34.273Z,13.38
2023-05-12T12:46:01.800Z,12.30
2023-05-12T12:48:28.896Z,12.25
2023-05-12T12:50:56.429Z,13.00
2023-05-12T12:53:23.566Z,12.05
2023-05-12T12:55:50.557Z,13.48
2023-05-12T12:58:17.485Z,12.57
2023-05-12T13:00:44.472Z,12.68
2023-05-12T13:03:11.527Z,12.80
2023-05-12T13:05:38.810Z,12.52
2023-05-12T13:08:05.841Z,13.55
2023-05-12T13:10:33.425Z,12.10
2023-05-12T13:13:00.714Z,12.73
2023-05-12T13:15:27.935Z,13.40
2023-05-12T13:17:55.053Z,12.70
2023-05-12T13:20:22.132Z,12.70
2023-05-12T13:22:49.281Z,11.73
2023-05-12T13:25:16.380Z,12.05
2023-05-12T13:27:43.261Z,12.13
2023-05-12T13:30:12.847Z,11.23
2023-05-12T13:32:40.798Z,11.98
2023-05-12T13:35:08.765Z,11.95
2023-05-12T13:37:35.671Z,11.82
2023-05-12T13:40:05.054Z,12.10
2023-05-12T13:44:59.472Z,11.82
2023-05-12T13:47:26.973Z,11.52
2023-05-12T13:49:54.057Z,11.63
2023-05-12T13:52:21.005Z,12.65
2023-05-12T13:54:47.908Z,12.57
2023-05-12T13:57:15.008Z,12.18
2023-05-12T13:59:41.987Z,12.63
2023-05-12T14:02:11.481Z,12.50
2023-05-12T14:04:38.497Z,12.52
2023-05-12T14:07:08.339Z,12.00
2023-05-12T14:09:35.840Z,12.38
2023-05-12T14:12:04.409Z,13.00
2023-05-12T14:14:31.501Z,12.73
2023-05-12T14:16:58.357Z,12.98
2023-05-12T14:19:25.269Z,12.70
2023-05-12T14:21:52.179Z,11.80
2023-05-12T14:24:19.076Z,11.95
2023-05-12T14:26:45.946Z,12.57
2023-05-12T14:29:13.329Z,13.70
2023-05-12T14:31:40.448Z,12.82
2023-05-12T14:34:09.181Z,13.68
2023-05-12T14:36:36.097Z,12.43
2023-05-12T14:39:03.105Z,12.20
2023-05-12T14:41:29.952Z,12.27
2023-05-12T14:43:58.371Z,12.93
2023-05-12T14:46:25.626Z,11.77
2023-05-12T14:48:52.677Z,12.27
2023-05-12T14:51:19.621Z,12.10
2023-05-12T14:53:46.554Z,12.57
2023-05-12T14:56:13.512Z,11.68
2023-05-12T14:58:40.481Z,12.15
2023-05-12T15:01:09.343Z,11.73
2023-05-12T15:03:36.610Z,11.25
2023-05-12T15:06:07.090Z,11.45
2023-05-12T15:08:34.865Z,12.23
2023-05-12T15:11:02.432Z,12.45
2023-05-12T15:13:29.403Z,12.18
2023-05-12T15:15:57.002Z,11.88
2023-05-12T15:18:24.257Z,13.55
2023-05-12T15:20:51.724Z,13.73
2023-05-12T15:23:18.710Z,13.93
2023-05-12T15:25:45.626Z,12.50
2023-05-12T15:28:12.537Z,12.98
2023-05-12T15:30:39.419Z,13.07
2023-05-12T15:33:07.005Z,12.93
2023-05-12T15:35:34.569Z,13.25
2023-05-12T15:38:01.455Z,12.15
2023-05-12T15:40:30.645Z,13.55
2023-05-12T15:42:57.956Z,12.70
2023-05-12T15:45:24.945Z,12.27
2023-05-12T15:47:52.019Z,11.30
2023-05-12T15:50:22.589Z,11.55
2023-05-12T15:52:50.009Z,12.40
2023-05-12T15:55:17.316Z,12.45
2023-05-12T15:57:44.486Z,12.55
2023-05-12T16:00:12.325Z,12.30
2023-05-12T16:02:42.117Z,12.18
2023-05-12T16:05:09.695Z,11.98
2023-05-12T16:07:36.724Z,13.02
2023-05-12T16:10:04.058Z,11.90
2023-05-12T16:12:31.214Z,12.43
2023-05-12T16:14:58.229Z,11.95
2023-05-12T16:17:25.310Z,11.15
2023-05-12T16:19:53.509Z,11.60
2023-05-12T16:22:20.637Z,12.45
2023-05-12T16:24:47.808Z,11.48
2023-05-12T16:27:14.830Z,11.50
2023-05-12T16:29:45.404Z,12.32
2023-05-12T16:32:13.020Z,11.00
2023-05-12T16:34:39.977Z,11.68
2023-05-12T16:37:06.902Z,12.25
2023-05-12T16:39:35.720Z,11.30
2023-05-12T16:42:03.060Z,11.85
2023-05-12T16:44:30.031Z,11.63
2023-05-12T16:46:57.074Z,10.73
2023-05-12T16:49:24.026Z,11.00
2023-05-12T16:51:51.015Z,12.63
2023-05-12T16:54:18.431Z,11.43
2023-05-12T16:56:45.460Z,11.90
2023-05-12T16:59:12.426Z,11.68
2023-05-12T17:01:39.692Z,12.45
2023-05-12T17:04:07.919Z,12.00
2023-05-12T17:06:34.979Z,12.00
2023-05-12T17:09:02.126Z,11.90
2023-05-12T17:11:29.144Z,12.70
2023-05-12T17:13:56.085Z,11.85
2023-05-12T17:16:23.139Z,11.40
2023-05-12T17:21:20.167Z,12.25
2023-05-12T17:23:47.183Z,13.52
2023-05-12T17:26:14.593Z,12.02
2023-05-12T17:28:41.631Z,12.00
2023-05-12T17:31:08.644Z,12.18
2023-05-12T17:33:35.629Z,12.70
2023-05-12T17:36:11.659Z,12.07
2023-05-12T17:38:40.670Z,13.48
2023-05-12T17:41:07.595Z,13.50
2023-05-12T17:43:34.524Z,13.73
2023-05-12T17:46:01.606Z,13.93
2023-05-12T17:48:32.915Z,13.35
2023-05-12T17:51:00.887Z,12.88
2023-05-12T17:53:27.821Z,12.40
2023-05-12T17:55:54.838Z,13.18
2023-05-12T17:58:21.783Z,13.07
2023-05-12T18:00:48.634Z,12.65
2023-05-12T18:03:15.898Z,13.23
2023-05-12T18:05:46.691Z,13.10
2023-05-12T18:08:13.626Z,12.32
2023-05-12T18:10:41.344Z,12.77
2023-05-12T18:13:08.307Z,13.35
2023-05-12T18:15:35.306Z,13.48
2023-05-12T18:18:02.668Z,13.85
2023-05-12T18:20:29.627Z,12.93
2023-05-12T18:22:56.743Z,12.52
2023-05-12T18:25:23.806Z,12.32
2023-05-12T18:27:51.322Z,11.82
2023-05-12T18:30:18.389Z,12.13
2023-05-12T18:32:45.406Z,12.27
2023-05-12T18:35:12.404Z,11.95
2023-05-12T18:37:39.355Z,12.50
2023-05-12T18:40:08.327Z,12.35
2023-05-12T18:42:35.971Z,11.18
2023-05-12T18:45:03.233Z,11.82
2023-05-12T18:47:30.187Z,12.23
2023-05-12T18:49:57.164Z,12.18
2023-05-12T18:52:24.106Z,12.27
2023-05-12T18:54:50.984Z,12.45
2023-05-12T18:57:18.279Z,12.60
2023-05-12T18:59:45.597Z,11.90
2023-05-12T19:02:12.516Z,11.90
2023-05-12T19:04:39.566Z,12.75
2023-05-12T19:07:09.402Z,11.95
2023-05-12T19:09:37.274Z,11.57
2023-05-12T19:12:05.964Z,11.80
2023-05-12T19:14:33.229Z,12.10
2023-05-12T19:17:00.297Z,11.18
2023-05-12T19:19:27.433Z,11.18
2023-05-12T19:21:54.436Z,10.93
2023-05-12T19:24:25.451Z,11.65
2023-05-12T19:26:52.506Z,11.27
2023-05-12T19:29:19.485Z,11.13
2023-05-12T19:31:46.439Z,10.95
2023-05-12T19:34:13.372Z,10.38
2023-05-12T19:36:40.430Z,10.30
2023-05-12T19:39:07.292Z,9.68
2023-05-12T19:41:34.189Z,9.77
2023-05-12T19:44:01.327Z,11.15
2023-05-12T19:46:29.537Z,10.98
2023-05-12T19:48:56.610Z,9.30
2023-05-12T19:51:23.537Z,9.32
2023-05-12T19:53:50.479Z,9.60
2023-05-12T19:56:18.733Z,10.18
2023-05-12T19:58:45.711Z,8.95
2023-05-12T20:01:12.657Z,8.55
2023-05-12T20:03:39.702Z,9.30
2023-05-12T20:06:06.736Z,9.52
2023-05-12T20:08:33.631Z,9.25
2023-05-12T20:11:00.606Z,9.55
2023-05-12T20:13:27.646Z,10.05
2023-05-12T20:15:54.924Z,10.35
2023-05-12T20:18:23.687Z,8.93
2023-05-12T20:20:51.018Z,8.63
2023-05-12T20:23:18.001Z,10.50
2023-05-12T20:25:44.980Z,9.50
2023-05-12T20:28:12.002Z,8.55
2023-05-12T20:30:39.085Z,9.93
2023-05-12T20:33:06.116Z,9.05
2023-05-12T20:35:33.166Z,9.55
2023-05-12T20:38:00.140Z,11.10
2023-05-12T20:40:27.562Z,11.40
2023-05-12T20:42:54.463Z,9.45
2023-05-12T20:45:21.893Z,15.82
2023-05-12T20:47:49.359Z,10.60
2023-05-12T20:50:16.929Z,9.23
2023-05-12T20:52:46.158Z,9.70
2023-05-12T20:55:13.113Z,9.07
2023-05-12T20:57:40.214Z,10.30
2023-05-12T21:00:11.600Z,9.88
2023-05-12T21:02:38.802Z,9.55
2023-05-12T21:05:06.259Z,9.10
2023-05-12T21:07:33.250Z,9.00
2023-05-12T21:10:00.870Z,9.27
2023-05-12T21:12:28.027Z,9.73
2023-05-12T21:14:55.189Z,9.73
2023-05-12T21:17:22.383Z,9.32
2023-05-12T21:19:49.338Z,9.70
2023-05-12T21:22:16.390Z,10.00
2023-05-12T21:24:43.327Z,9.23
2023-05-12T21:27:11.476Z,9.23
2023-05-12T21:29:38.402Z,7.85
2023-05-12T21:32:05.809Z,9.27
2023-05-12T21:34:33.753Z,9.20
2023-05-12T21:37:00.900Z,9.55
2023-05-12T21:39:27.958Z,9.02
2023-05-12T21:41:55.044Z,9.32
2023-05-12T21:44:21.989Z,8.48
2023-05-12T21:46:48.920Z,9.20
2023-05-12T21:49:15.985Z,9.43
2023-05-12T21:51:42.894Z,9.15
2023-05-12T21:54:09.881Z,8.23
2023-05-12T21:56:36.984Z,9.55
2023-05-12T21:59:04.045Z,9.05
2023-05-12T22:01:31.449Z,8.73
2023-05-12T22:03:59.254Z,8.20
2023-05-12T22:06:26.295Z,8.18
2023-05-12T22:08:54.282Z,8.93
2023-05-12T22:11:21.595Z,8.68
2023-05-12T22:13:48.934Z,7.82
2023-05-12T22:16:16.391Z,8.52
2023-05-12T22:18:43.650Z,8.10
2023-05-12T22:21:12.061Z,8.40
2023-05-12T22:23:39.690Z,8.90
2023-05-12T22:26:06.644Z,9.10
2023-05-12T22:28:33.563Z,8.65
2023-05-12T22:31:00.602Z,8.43
2023-05-12T22:33:27.562Z,7.35
2023-05-12T22:35:58.423Z,7.78
2023-05-12T22:38:25.289Z,8.07
2023-05-12T22:40:52.160Z,8.23
2023-05-12T22:43:19.342Z,7.68
2023-05-12T22:45:52.725Z,8.57
2023-05-12T22:48:23.371Z,7.97
2023-05-12T22:50:54.374Z,8.77
2023-05-12T22:53:21.259Z,7.80
2023-05-12T22:55:48.312Z,8.88
2023-05-12T22:58:15.228Z,8.85
2023-05-12T23:00:42.234Z,10.07
2023-05-12T23:03:09.353Z,10.23
2023-05-12T23:05:36.289Z,10.65
2023-05-12T23:08:03.199Z,9.23
2023-05-12T23:10:30.677Z,9.32
2023-05-12T23:12:57.812Z,9.20
2023-05-12T23:15:24.832Z,9.00
2023-05-12T23:17:51.940Z,8.25
2023-05-12T23:20:19.250Z,8.45
2023-05-12T23:22:46.322Z,8.68
2023-05-12T23:25:13.277Z,7.97
2023-05-12T23:27:40.202Z,8.52
2023-05-12T23:30:07.860Z,7.70
2023-05-12T23:32:34.954Z,8.48
2023-05-12T23:35:02.040Z,7.65
2023-05-12T23:37:28.941Z,8.27
2023-05-12T23:39:57.387Z,8.20
2023-05-12T23:42:24.334Z,8.18
2023-05-12T23:44:51.350Z,7.95
2023-05-12T23:47:18.253Z,8.52
2023-05-12T23:49:45.398Z,9.38
2023-05-12T23:52:12.296Z,8.50
2023-05-12T23:54:39.245Z,8.60
2023-05-12T23:57:06.384Z,9.35
2023-05-12T23:59:33.268Z,9.13
